Time;durP1;ratioP1;P1;durP2;ratioP2;P2;SDS_P1;SDS_P2;PMS_P1;PMS_P2;Temp;Humidity;BMP_temperature;BMP_pressure;BME280_temperature;BME280_humidity;BME280_pressure;Samples;Min_cycle;Max_cycle;Signal;HPM_P1;HPM_P2
2022/10/26 00:00:10;;;;;;;7.63;4.70;;;;;;;;;;5073633;28;20661;-83
2022/10/26 00:02:37;;;;;;;6.50;4.77;;;;;;;;;;5072932;28;20233;-83
2022/10/26 00:05:06;;;;;;;9.43;4.90;;;;;;;;;;5074466;28;20209;-84
2022/10/26 00:07:33;;;;;;;7.43;5.00;;;;;;;;;;5084546;28;20739;-84
2022/10/26 00:10:01;;;;;;;10.87;5.17;;;;;;;;;;5073674;28;20232;-84
2022/10/26 00:12:28;;;;;;;6.57;4.50;;;;;;;;;;5072557;28;20240;-84
2022/10/26 00:14:55;;;;;;;5.83;4.23;;;;;;;;;;5072779;28;20202;-84
2022/10/26 00:17:22;;;;;;;6.33;4.57;;;;;;;;;;5072975;28;20307;-83
2022/10/26 00:19:49;;;;;;;6.87;4.33;;;;;;;;;;5072841;28;21083;-83
2022/10/26 00:22:17;;;;;;;10.07;4.70;;;;;;;;;;5072830;28;20574;-83
2022/10/26 00:24:45;;;;;;;7.50;4.27;;;;;;;;;;5073186;28;20228;-83
2022/10/26 00:27:12;;;;;;;7.63;4.40;;;;;;;;;;5072857;28;20256;-83
2022/10/26 00:29:39;;;;;;;12.00;5.60;;;;;;;;;;5073064;28;20207;-83
2022/10/26 00:32:06;;;;;;;9.37;4.63;;;;;;;;;;5072938;28;20245;-83
2022/10/26 00:34:33;;;;;;;9.00;5.20;;;;;;;;;;5073099;28;20209;-83
2022/10/26 00:37:00;;;;;;;10.53;5.27;;;;;;;;;;5072360;28;20229;-83
2022/10/26 00:39:29;;;;;;;9.60;5.67;;;;;;;;;;5072911;28;20213;-83
2022/10/26 00:41:56;;;;;;;13.73;4.70;;;;;;;;;;5057573;28;20243;-83
2022/10/26 00:44:42;;;;;;;11.03;4.60;;;;;;;;;;5071651;28;20248;-83
2022/10/26 00:47:10;;;;;;;16.47;5.57;;;;;;;;;;5063856;28;20233;-82
2022/10/26 00:49:37;;;;;;;7.87;4.73;;;;;;;;;;5064447;28;20206;-83
2022/10/26 00:52:04;;;;;;;7.87;5.10;;;;;;;;;;5056547;28;20234;-83
2022/10/26 00:54:33;;;;;;;9.27;4.50;;;;;;;;;;5052614;28;20206;-83
2022/10/26 00:57:00;;;;;;;7.60;4.80;;;;;;;;;;5052405;28;20717;-83
2022/10/26 00:59:27;;;;;;;8.03;4.67;;;;;;;;;;5052353;28;20210;-83
2022/10/26 01:01:54;;;;;;;9.20;5.03;;;;;;;;;;5070417;28;20237;-84
2022/10/26 01:04:22;;;;;;;8.33;4.60;;;;;;;;;;5071881;28;20232;-83
2022/10/26 01:06:49;;;;;;;6.77;4.60;;;;;;;;;;5071793;28;20237;-83
2022/10/26 01:09:17;;;;;;;7.67;5.03;;;;;;;;;;5072418;28;20212;-83
2022/10/26 01:11:46;;;;;;;7.27;5.00;;;;;;;;;;5071767;28;20234;-83
2022/10/26 01:14:14;;;;;;;5.17;4.27;;;;;;;;;;5072205;28;20677;-83
2022/10/26 01:16:49;;;;;;;13.70;4.77;;;;;;;;;;5071788;28;20208;-83
2022/10/26 01:19:51;;;;;;;6.73;4.97;;;;;;;;;;5072266;28;20197;-83
2022/10/26 01:22:20;;;;;;;9.17;4.97;;;;;;;;;;4990369;28;20651;-83
2022/10/26 01:25:04;;;;;;;5.87;4.63;;;;;;;;;;4990353;28;20231;-83
2022/10/26 01:27:34;;;;;;;7.77;4.50;;;;;;;;;;5037949;28;20238;-83
2022/10/26 01:30:25;;;;;;;8.27;5.00;;;;;;;;;;5072290;28;20216;-83
2022/10/26 01:32:58;;;;;;;7.70;4.53;;;;;;;;;;5071553;28;20269;-82
2022/10/26 01:35:28;;;;;;;11.30;4.80;;;;;;;;;;5072039;28;20665;-83
2022/10/26 01:37:59;;;;;;;8.10;4.73;;;;;;;;;;5071684;28;20240;-83
2022/10/26 01:40:29;;;;;;;5.37;4.77;;;;;;;;;;5072305;28;20561;-83
2022/10/26 01:42:58;;;;;;;9.43;5.20;;;;;;;;;;5071846;28;20229;-83
2022/10/26 01:45:25;;;;;;;13.93;5.57;;;;;;;;;;5072892;28;20227;-83
2022/10/26 01:47:53;;;;;;;6.20;4.50;;;;;;;;;;5072428;28;20237;-83
2022/10/26 01:50:21;;;;;;;10.93;4.57;;;;;;;;;;5076560;28;20204;-84
2022/10/26 01:52:50;;;;;;;12.07;5.23;;;;;;;;;;5076421;28;20237;-83
2022/10/26 01:55:36;;;;;;;10.13;5.77;;;;;;;;;;5084553;28;20205;-84
2022/10/26 01:58:07;;;;;;;9.43;5.07;;;;;;;;;;5098516;28;20231;-84
2022/10/26 02:00:36;;;;;;;7.83;4.30;;;;;;;;;;5098352;28;20207;-84
2022/10/26 02:03:11;;;;;;;7.87;4.90;;;;;;;;;;5097736;28;20233;-83
2022/10/26 02:05:51;;;;;;;6.40;4.87;;;;;;;;;;5097795;28;20197;-84
2022/10/26 02:08:34;;;;;;;6.07;4.67;;;;;;;;;;5099480;28;20223;-84
2022/10/26 02:11:08;;;;;;;7.57;4.63;;;;;;;;;;5056656;28;20198;-85
2022/10/26 02:13:40;;;;;;;6.37;4.90;;;;;;;;;;5057332;28;20229;-88
2022/10/26 02:16:13;;;;;;;8.80;4.70;;;;;;;;;;5072086;28;20208;-88
2022/10/26 02:18:44;;;;;;;11.43;5.37;;;;;;;;;;5076763;28;20237;-89
2022/10/26 02:21:16;;;;;;;5.33;4.80;;;;;;;;;;5077590;28;20225;-89
2022/10/26 02:23:44;;;;;;;9.17;4.67;;;;;;;;;;5076381;28;20225;-88
2022/10/26 02:26:14;;;;;;;10.87;4.67;;;;;;;;;;5061568;28;20202;-89
2022/10/26 02:28:42;;;;;;;8.33;5.53;;;;;;;;;;5057364;28;20233;-87
2022/10/26 02:31:10;;;;;;;7.17;4.73;;;;;;;;;;5057575;28;20217;-87
2022/10/26 02:33:39;;;;;;;5.73;4.77;;;;;;;;;;5056881;28;20313;-87
2022/10/26 02:36:07;;;;;;;9.87;5.23;;;;;;;;;;5057035;28;20202;-88
2022/10/26 02:38:37;;;;;;;7.63;5.00;;;;;;;;;;5075676;28;20236;-87
2022/10/26 02:41:05;;;;;;;8.93;5.03;;;;;;;;;;5076564;28;20202;-87
2022/10/26 02:43:33;;;;;;;6.33;4.77;;;;;;;;;;5075853;28;20256;-88
2022/10/26 02:46:03;;;;;;;7.27;4.97;;;;;;;;;;5076212;28;20228;-88
2022/10/26 02:48:30;;;;;;;8.83;5.17;;;;;;;;;;5055883;28;20242;-88
2022/10/26 02:51:00;;;;;;;8.87;5.00;;;;;;;;;;5070510;28;20207;-88
2022/10/26 02:53:30;;;;;;;5.07;4.57;;;;;;;;;;5075769;28;20243;-87
2022/10/26 02:56:00;;;;;;;12.93;4.83;;;;;;;;;;5075869;28;20704;-88
2022/10/26 02:58:30;;;;;;;13.37;4.97;;;;;;;;;;5069121;28;20226;-87
2022/10/26 03:00:57;;;;;;;7.37;4.83;;;;;;;;;;5075228;28;20213;-88
2022/10/26 03:03:25;;;;;;;10.60;4.87;;;;;;;;;;5069191;28;20233;-87
2022/10/26 03:05:52;;;;;;;10.93;4.90;;;;;;;;;;5074896;28;20244;-85
2022/10/26 03:08:19;;;;;;;10.07;4.73;;;;;;;;;;5074907;28;20229;-84
2022/10/26 03:10:46;;;;;;;10.90;5.27;;;;;;;;;;5064791;28;20200;-85
2022/10/26 03:13:14;;;;;;;7.80;5.30;;;;;;;;;;5083732;28;20233;-85
2022/10/26 03:15:42;;;;;;;9.03;5.30;;;;;;;;;;5075318;28;20198;-84
2022/10/26 03:18:09;;;;;;;6.23;4.40;;;;;;;;;;5074719;28;20232;-84
2022/10/26 03:20:36;;;;;;;10.53;4.67;;;;;;;;;;5075255;28;20206;-84
2022/10/26 03:23:03;;;;;;;11.43;4.80;;;;;;;;;;5075011;28;20237;-85
2022/10/26 03:25:30;;;;;;;9.93;5.40;;;;;;;;;;5075272;28;20229;-85
2022/10/26 03:27:58;;;;;;;9.90;5.23;;;;;;;;;;5074473;28;20271;-85
2022/10/26 03:30:27;;;;;;;13.13;5.20;;;;;;;;;;5075266;28;20200;-84
2022/10/26 03:32:54;;;;;;;11.73;5.10;;;;;;;;;;5074330;28;20238;-86
2022/10/26 03:35:21;;;;;;;7.10;4.90;;;;;;;;;;5075318;28;20204;-86
2022/10/26 03:37:48;;;;;;;6.40;4.90;;;;;;;;;;5074612;28;20240;-85
2022/10/26 03:40:15;;;;;;;9.47;5.03;;;;;;;;;;5075307;28;20206;-86
2022/10/26 03:42:42;;;;;;;8.17;5.00;;;;;;;;;;5074614;28;20229;-86
2022/10/26 03:45:10;;;;;;;8.23;5.40;;;;;;;;;;5075321;28;20225;-86
2022/10/26 03:47:44;;;;;;;9.33;5.40;;;;;;;;;;5074815;28;20241;-86
2022/10/26 03:50:12;;;;;;;8.30;4.83;;;;;;;;;;5075233;28;20665;-86
2022/10/26 03:52:39;;;;;;;5.87;4.80;;;;;;;;;;5074376;28;20248;-85
2022/10/26 03:55:06;;;;;;;11.73;5.67;;;;;;;;;;5074816;28;20205;-86
2022/10/26 03:57:34;;;;;;;8.40;5.27;;;;;;;;;;5074156;28;20229;-87
2022/10/26 04:00:01;;;;;;;6.83;5.13;;;;;;;;;;5074714;28;20198;-86
2022/10/26 04:02:28;;;;;;;8.03;5.57;;;;;;;;;;5073885;28;20286;-85
2022/10/26 04:04:56;;;;;;;7.60;5.90;;;;;;;;;;5074389;28;20232;-85
2022/10/26 04:07:23;;;;;;;10.00;5.93;;;;;;;;;;5073800;28;20236;-85
2022/10/26 04:09:50;;;;;;;6.57;5.30;;;;;;;;;;5074151;28;20212;-85
2022/10/26 04:12:17;;;;;;;9.37;5.70;;;;;;;;;;5072976;28;20237;-85
2022/10/26 04:14:44;;;;;;;9.93;5.93;;;;;;;;;;5071103;28;20210;-85
2022/10/26 04:17:11;;;;;;;9.70;6.90;;;;;;;;;;5071370;28;20235;-85
2022/10/26 04:19:38;;;;;;;9.37;5.23;;;;;;;;;;5073408;28;20687;-85
2022/10/26 04:22:07;;;;;;;10.37;5.27;;;;;;;;;;5073634;28;20294;-85
2022/10/26 04:24:34;;;;;;;8.47;5.67;;;;;;;;;;5074350;28;20232;-85
2022/10/26 04:27:01;;;;;;;6.17;4.57;;;;;;;;;;5073777;28;20233;-85
2022/10/26 04:29:28;;;;;;;10.60;4.93;;;;;;;;;;5073908;28;20201;-85
2022/10/26 04:31:55;;;;;;;8.30;5.10;;;;;;;;;;5073087;28;20237;-85
2022/10/26 04:34:22;;;;;;;6.33;5.03;;;;;;;;;;5073826;28;20221;-84
2022/10/26 04:36:49;;;;;;;11.50;5.30;;;;;;;;;;5071514;28;20708;-86
2022/10/26 04:39:18;;;;;;;10.77;5.23;;;;;;;;;;5061742;28;20589;-87
2022/10/26 04:41:45;;;;;;;5.33;4.80;;;;;;;;;;5073317;28;20232;-87
2022/10/26 04:44:12;;;;;;;9.97;4.67;;;;;;;;;;5073711;28;20197;-86
2022/10/26 04:46:39;;;;;;;7.70;5.03;;;;;;;;;;5073147;28;20193;-83
2022/10/26 04:49:08;;;;;;;9.93;4.90;;;;;;;;;;5072910;28;20208;-83
2022/10/26 04:51:35;;;;;;;7.37;4.70;;;;;;;;;;5072613;28;20229;-84
2022/10/26 04:54:02;;;;;;;7.20;5.00;;;;;;;;;;5072628;28;20836;-83
2022/10/26 04:56:31;;;;;;;8.40;5.27;;;;;;;;;;5073070;28;20205;-85
2022/10/26 04:59:04;;;;;;;8.17;4.50;;;;;;;;;;5073107;28;20681;-85
2022/10/26 05:01:31;;;;;;;9.33;5.40;;;;;;;;;;5072895;28;20225;-85
2022/10/26 05:03:58;;;;;;;12.90;4.70;;;;;;;;;;5073268;28;20212;-85
2022/10/26 05:06:25;;;;;;;8.93;4.93;;;;;;;;;;5072402;28;20216;-84
2022/10/26 05:08:53;;;;;;;12.07;5.10;;;;;;;;;;5072718;28;20216;-88
2022/10/26 05:11:20;;;;;;;12.77;5.40;;;;;;;;;;5062459;28;20233;-87
2022/10/26 05:13:48;;;;;;;6.13;4.73;;;;;;;;;;5070963;28;20229;-86
2022/10/26 05:16:16;;;;;;;8.43;5.03;;;;;;;;;;5072881;28;20233;-86
2022/10/26 05:18:43;;;;;;;7.53;4.97;;;;;;;;;;5072266;28;20290;-85
2022/10/26 05:21:11;;;;;;;14.27;5.67;;;;;;;;;;5073133;28;20208;-86
2022/10/26 05:23:38;;;;;;;5.83;4.43;;;;;;;;;;5071730;28;20604;-86
2022/10/26 05:26:05;;;;;;;9.60;4.80;;;;;;;;;;5073155;28;20221;-86
2022/10/26 05:28:32;;;;;;;8.83;4.80;;;;;;;;;;5072394;28;20229;-87
2022/10/26 05:31:01;;;;;;;7.60;4.80;;;;;;;;;;5074737;28;20206;-86
2022/10/26 05:33:28;;;;;;;8.50;5.30;;;;;;;;;;5084500;28;20243;-86
2022/10/26 05:35:55;;;;;;;9.83;5.50;;;;;;;;;;5093365;28;20207;-85
2022/10/26 05:38:22;;;;;;;9.93;5.27;;;;;;;;;;5092559;28;20228;-86
2022/10/26 05:40:49;;;;;;;10.93;5.90;;;;;;;;;;5093438;28;20282;-88
2022/10/26 05:43:17;;;;;;;9.63;5.90;;;;;;;;;;5093023;28;20259;-87
2022/10/26 05:45:44;;;;;;;7.57;5.00;;;;;;;;;;5075339;28;20719;-85
2022/10/26 05:48:12;;;;;;;7.03;5.50;;;;;;;;;;5072481;28;20312;-86
2022/10/26 05:50:39;;;;;;;7.20;5.33;;;;;;;;;;5073517;28;20209;-86
2022/10/26 05:53:13;;;;;;;11.33;5.80;;;;;;;;;;5072394;28;20244;-85
2022/10/26 05:55:40;;;;;;;14.77;5.67;;;;;;;;;;5073101;28;20198;-85
2022/10/26 05:58:10;;;;;;;6.37;5.00;;;;;;;;;;5072188;28;20245;-86
2022/10/26 06:00:38;;;;;;;8.00;5.27;;;;;;;;;;5073416;28;20201;-85
2022/10/26 06:03:13;;;;;;;9.67;5.60;;;;;;;;;;5072203;28;20240;-85
2022/10/26 06:05:52;;;;;;;10.70;5.90;;;;;;;;;;5059031;28;20662;-85
2022/10/26 06:08:19;;;;;;;7.43;5.27;;;;;;;;;;5068761;28;20224;-86
2022/10/26 06:10:46;;;;;;;8.27;5.70;;;;;;;;;;5060971;28;20205;-86
2022/10/26 06:13:14;;;;;;;7.70;5.23;;;;;;;;;;5087525;28;20656;-85
2022/10/26 06:15:45;;;;;;;8.80;5.20;;;;;;;;;;5092996;28;20723;-87
2022/10/26 06:18:18;;;;;;;8.37;5.80;;;;;;;;;;5092595;27;20235;-87
2022/10/26 06:20:52;;;;;;;13.57;5.70;;;;;;;;;;5091669;28;20621;-87
2022/10/26 06:23:25;;;;;;;7.77;5.83;;;;;;;;;;5056634;27;20233;-87
2022/10/26 06:25:57;;;;;;;16.53;5.80;;;;;;;;;;5053095;28;20214;-85
2022/10/26 06:28:28;;;;;;;6.23;5.43;;;;;;;;;;5051718;28;20230;-86
2022/10/26 06:30:57;;;;;;;11.50;5.63;;;;;;;;;;5052706;28;20195;-87
2022/10/26 06:33:25;;;;;;;7.27;5.60;;;;;;;;;;5068703;28;20225;-86
2022/10/26 06:35:56;;;;;;;9.30;5.60;;;;;;;;;;5075111;28;20205;-86
2022/10/26 06:38:24;;;;;;;8.27;5.50;;;;;;;;;;5075386;28;20244;-85
2022/10/26 06:40:52;;;;;;;11.50;5.90;;;;;;;;;;5076045;28;20572;-86
2022/10/26 06:43:23;;;;;;;6.87;5.40;;;;;;;;;;5059655;28;20244;-86
2022/10/26 06:45:53;;;;;;;7.57;5.50;;;;;;;;;;5055939;28;20270;-87
2022/10/26 06:48:25;;;;;;;7.63;5.37;;;;;;;;;;5055195;28;20710;-85
2022/10/26 06:50:54;;;;;;;8.20;5.60;;;;;;;;;;5055658;28;20198;-86
2022/10/26 06:53:24;;;;;;;14.00;7.07;;;;;;;;;;5051073;28;20606;-85
2022/10/26 06:55:52;;;;;;;10.77;6.97;;;;;;;;;;5049689;28;20198;-86
2022/10/26 06:58:20;;;;;;;11.70;6.60;;;;;;;;;;5054288;28;20238;-86
2022/10/26 07:00:49;;;;;;;8.30;5.53;;;;;;;;;;5055453;28;20213;-86
2022/10/26 07:03:17;;;;;;;9.43;6.13;;;;;;;;;;5066145;27;20238;-86
2022/10/26 07:05:45;;;;;;;7.47;5.87;;;;;;;;;;5056766;28;20226;-85
2022/10/26 07:08:14;;;;;;;11.40;6.07;;;;;;;;;;5067903;28;20229;-86
2022/10/26 07:10:42;;;;;;;10.63;5.80;;;;;;;;;;5046997;28;20209;-86
2022/10/26 07:13:10;;;;;;;12.57;6.13;;;;;;;;;;5070093;28;20845;-86
2022/10/26 07:15:38;;;;;;;9.07;6.30;;;;;;;;;;5065272;28;20670;-86
2022/10/26 07:18:06;;;;;;;8.53;5.83;;;;;;;;;;5054432;28;20244;-86
2022/10/26 07:20:33;;;;;;;8.70;5.97;;;;;;;;;;5054948;28;20206;-86
2022/10/26 07:23:00;;;;;;;10.43;6.30;;;;;;;;;;5045532;27;20238;-85
2022/10/26 07:25:29;;;;;;;8.57;6.10;;;;;;;;;;5049787;28;20708;-86
2022/10/26 07:28:05;;;;;;;10.80;6.20;;;;;;;;;;5045579;28;20228;-85
2022/10/26 07:30:32;;;;;;;9.10;6.30;;;;;;;;;;5073695;28;20209;-86
2022/10/26 07:33:00;;;;;;;8.20;5.97;;;;;;;;;;5068025;28;20245;-87
2022/10/26 07:35:27;;;;;;;9.70;6.30;;;;;;;;;;5075370;28;20209;-87
2022/10/26 07:37:57;;;;;;;8.90;5.60;;;;;;;;;;5074837;28;20239;-86
2022/10/26 07:40:24;;;;;;;9.03;6.53;;;;;;;;;;5075173;28;20227;-87
2022/10/26 07:42:53;;;;;;;7.77;5.90;;;;;;;;;;5066928;28;20237;-86
2022/10/26 07:45:20;;;;;;;9.47;6.27;;;;;;;;;;5074923;28;20244;-86
2022/10/26 07:47:49;;;;;;;12.77;6.37;;;;;;;;;;5073373;28;20229;-86
2022/10/26 07:50:16;;;;;;;16.03;7.17;;;;;;;;;;5071431;28;20213;-86
2022/10/26 07:52:44;;;;;;;8.53;6.77;;;;;;;;;;5062960;28;20238;-87
2022/10/26 07:55:11;;;;;;;7.93;6.87;;;;;;;;;;5051682;28;20194;-87
2022/10/26 07:57:38;;;;;;;12.73;7.17;;;;;;;;;;5054120;28;20233;-87
2022/10/26 08:00:08;;;;;;;10.13;6.97;;;;;;;;;;5054419;28;20588;-87
2022/10/26 08:02:36;;;;;;;10.43;6.37;;;;;;;;;;5053864;28;20234;-88
2022/10/26 08:05:04;;;;;;;9.00;7.10;;;;;;;;;;5054720;28;20650;-85
2022/10/26 08:07:31;;;;;;;8.80;6.23;;;;;;;;;;5053716;28;20579;-86
2022/10/26 08:09:59;;;;;;;9.40;6.97;;;;;;;;;;5054444;28;20574;-86
2022/10/26 08:12:26;;;;;;;8.37;6.63;;;;;;;;;;5053782;28;20233;-87
2022/10/26 08:14:53;;;;;;;9.60;6.07;;;;;;;;;;5054426;28;20579;-86
2022/10/26 08:17:30;;;;;;;10.27;6.80;;;;;;;;;;5054199;28;20244;-87
2022/10/26 08:19:57;;;;;;;9.50;6.90;;;;;;;;;;5054238;28;20666;-85
2022/10/26 08:22:24;;;;;;;11.53;7.40;;;;;;;;;;5053316;28;20705;-85
2022/10/26 08:24:51;;;;;;;11.50;7.53;;;;;;;;;;5053723;28;20673;-87
2022/10/26 08:27:18;;;;;;;8.77;7.37;;;;;;;;;;5053711;28;20236;-86
2022/10/26 08:29:45;;;;;;;13.47;8.47;;;;;;;;;;5053629;28;20693;-86
2022/10/26 08:32:12;;;;;;;15.67;8.83;;;;;;;;;;5053381;28;20248;-86
2022/10/26 08:34:41;;;;;;;11.43;9.00;;;;;;;;;;5053435;28;20297;-86
2022/10/26 08:37:08;;;;;;;12.90;8.80;;;;;;;;;;5053888;28;20230;-87
2022/10/26 08:39:35;;;;;;;11.93;8.27;;;;;;;;;;5053827;28;20206;-87
2022/10/26 08:42:04;;;;;;;13.27;8.80;;;;;;;;;;5053037;28;20236;-85
2022/10/26 08:44:33;;;;;;;11.87;8.80;;;;;;;;;;5053960;28;20210;-87
2022/10/26 08:47:05;;;;;;;16.70;10.23;;;;;;;;;;5053234;28;20234;-85
2022/10/26 08:49:37;;;;;;;15.10;9.63;;;;;;;;;;5033287;28;20195;-87
2022/10/26 08:52:06;;;;;;;18.17;9.50;;;;;;;;;;5066063;22;20225;-85
2022/10/26 08:54:37;;;;;;;12.97;9.03;;;;;;;;;;5031320;28;20197;-82
2022/10/26 08:57:11;;;;;;;11.70;9.13;;;;;;;;;;5030498;28;20234;-82
2022/10/26 08:59:39;;;;;;;11.33;9.50;;;;;;;;;;5032375;28;20286;-83
2022/10/26 09:02:11;;;;;;;13.63;10.00;;;;;;;;;;5044951;28;20233;-83
2022/10/26 09:04:38;;;;;;;11.33;8.73;;;;;;;;;;5052244;28;20201;-83
2022/10/26 09:07:13;;;;;;;13.27;9.53;;;;;;;;;;5034902;28;20238;-83
2022/10/26 09:09:47;;;;;;;17.23;10.37;;;;;;;;;;5032408;28;20206;-83
2022/10/26 09:12:18;;;;;;;11.10;9.47;;;;;;;;;;5045240;28;20237;-84
2022/10/26 09:14:50;;;;;;;11.63;9.40;;;;;;;;;;5054810;28;20203;-84
2022/10/26 09:17:23;;;;;;;16.60;11.30;;;;;;;;;;5035737;28;20238;-84
2022/10/26 09:20:08;;;;;;;15.30;11.40;;;;;;;;;;5034174;28;20203;-84
2022/10/26 09:22:43;;;;;;;16.27;11.80;;;;;;;;;;5026201;28;20733;-84
2022/10/26 09:25:15;;;;;;;16.80;11.20;;;;;;;;;;5031770;28;20218;-84
2022/10/26 09:27:44;;;;;;;15.20;10.93;;;;;;;;;;5035479;28;20234;-84
2022/10/26 09:30:14;;;;;;;13.67;10.90;;;;;;;;;;5031715;28;20206;-84
2022/10/26 09:32:43;;;;;;;14.47;10.13;;;;;;;;;;5031089;28;20318;-84
2022/10/26 09:35:14;;;;;;;14.07;10.80;;;;;;;;;;5031429;28;20817;-84
2022/10/26 09:37:45;;;;;;;15.10;9.67;;;;;;;;;;5030502;28;20234;-85
2022/10/26 09:40:16;;;;;;;10.47;8.17;;;;;;;;;;5031618;28;20245;-85
2022/10/26 09:42:45;;;;;;;9.77;7.73;;;;;;;;;;5030823;28;20245;-84
2022/10/26 09:45:16;;;;;;;9.20;6.83;;;;;;;;;;5031313;28;20214;-85
2022/10/26 09:47:45;;;;;;;13.00;5.90;;;;;;;;;;5030019;28;20243;-84
2022/10/26 09:50:19;;;;;;;9.17;6.00;;;;;;;;;;5034400;28;20216;-84
2022/10/26 09:52:47;;;;;;;7.57;5.17;;;;;;;;;;5030570;28;20234;-84
2022/10/26 09:55:15;;;;;;;10.23;5.13;;;;;;;;;;5032714;28;20209;-84
2022/10/26 09:57:43;;;;;;;7.17;3.97;;;;;;;;;;5030595;28;20255;-84
2022/10/26 10:00:13;;;;;;;7.83;2.87;;;;;;;;;;5040049;28;20202;-86
2022/10/26 10:02:42;;;;;;;3.37;2.10;;;;;;;;;;5050632;28;20234;-86
2022/10/26 10:05:29;;;;;;;4.90;2.20;;;;;;;;;;5051598;28;20202;-86
2022/10/26 10:08:17;;;;;;;4.63;2.17;;;;;;;;;;5030901;28;20241;-87
2022/10/26 10:10:55;;;;;;;4.47;2.43;;;;;;;;;;5036406;28;20209;-86
2022/10/26 10:13:24;;;;;;;3.97;2.10;;;;;;;;;;5045418;28;20234;-85
2022/10/26 10:15:54;;;;;;;4.27;2.27;;;;;;;;;;5053773;28;20206;-85
2022/10/26 10:18:22;;;;;;;4.60;2.17;;;;;;;;;;5034076;28;20231;-85
2022/10/26 10:20:54;;;;;;;3.70;2.40;;;;;;;;;;5034683;28;20211;-85
2022/10/26 10:23:29;;;;;;;3.33;2.43;;;;;;;;;;5034501;28;20230;-84
2022/10/26 10:26:02;;;;;;;2.30;2.03;;;;;;;;;;5035288;28;20187;-85
2022/10/26 10:28:29;;;;;;;3.67;2.23;;;;;;;;;;5034076;28;20234;-86
2022/10/26 10:30:58;;;;;;;5.67;2.20;;;;;;;;;;5034971;28;20675;-86
2022/10/26 10:33:33;;;;;;;3.23;2.03;;;;;;;;;;5034462;28;20242;-85
2022/10/26 10:36:01;;;;;;;3.73;2.10;;;;;;;;;;5035014;28;20210;-87
2022/10/26 10:38:28;;;;;;;3.50;2.00;;;;;;;;;;5034266;28;20713;-87
2022/10/26 10:40:57;;;;;;;5.97;2.07;;;;;;;;;;5019429;28;20203;-86
2022/10/26 10:43:26;;;;;;;3.70;2.20;;;;;;;;;;5022743;28;20234;-87
2022/10/26 10:45:55;;;;;;;7.97;2.80;;;;;;;;;;5034464;28;20207;-88
2022/10/26 10:48:23;;;;;;;2.57;2.10;;;;;;;;;;5033962;28;20728;-86
2022/10/26 10:50:52;;;;;;;5.33;2.53;;;;;;;;;;5034072;28;20203;-86
2022/10/26 10:53:22;;;;;;;5.23;2.93;;;;;;;;;;5033691;28;20598;-88
2022/10/26 10:55:53;;;;;;;4.23;2.47;;;;;;;;;;5034464;28;20306;-87
2022/10/26 10:58:23;;;;;;;5.50;2.30;;;;;;;;;;5033370;28;20225;-87
2022/10/26 11:00:52;;;;;;;5.37;2.10;;;;;;;;;;5034492;28;20206;-87
2022/10/26 11:03:34;;;;;;;3.30;2.00;;;;;;;;;;5040886;28;20234;-86
2022/10/26 11:06:16;;;;;;;9.27;2.42;;;;;;;;;;5052242;28;20218;-86
2022/10/26 11:08:45;;;;;;;2.45;1.98;;;;;;;;;;5044410;28;20234;-87
2022/10/26 11:11:14;;;;;;;5.80;2.60;;;;;;;;;;5034133;28;20248;-86
2022/10/26 11:13:44;;;;;;;3.05;2.75;;;;;;;;;;5031512;28;20234;-85
2022/10/26 11:16:15;;;;;;;4.47;2.22;;;;;;;;;;5033710;28;20669;-86
2022/10/26 11:18:46;;;;;;;2.63;2.00;;;;;;;;;;5033440;28;20230;-86
2022/10/26 11:21:18;;;;;;;4.47;2.20;;;;;;;;;;5033537;28;20282;-88
2022/10/26 11:23:48;;;;;;;5.30;2.08;;;;;;;;;;5033852;28;20237;-89
2022/10/26 11:26:17;;;;;;;6.53;2.35;;;;;;;;;;5014330;28;20219;-88
2022/10/26 11:28:48;;;;;;;3.88;2.35;;;;;;;;;;5013394;28;20242;-88
2022/10/26 11:31:19;;;;;;;3.50;2.05;;;;;;;;;;5018494;28;20685;-88
2022/10/26 11:33:48;;;;;;;6.78;2.13;;;;;;;;;;5050824;28;20230;-87
2022/10/26 11:36:18;;;;;;;3.97;2.25;;;;;;;;;;5033810;28;20210;-87
2022/10/26 11:38:47;;;;;;;5.47;2.25;;;;;;;;;;5032930;28;20616;-87
2022/10/26 11:41:18;;;;;;;5.85;2.25;;;;;;;;;;5033686;28;20206;-86
2022/10/26 11:43:46;;;;;;;5.93;2.83;;;;;;;;;;5033013;28;20242;-87
2022/10/26 11:46:16;;;;;;;3.28;2.28;;;;;;;;;;5033811;28;20217;-87
2022/10/26 11:48:48;;;;;;;4.80;2.20;;;;;;;;;;5032507;28;20608;-87
2022/10/26 11:51:19;;;;;;;5.63;2.10;;;;;;;;;;5041688;28;20202;-87
2022/10/26 11:53:47;;;;;;;3.95;2.30;;;;;;;;;;5025842;28;20246;-87
2022/10/26 11:56:16;;;;;;;3.38;1.80;;;;;;;;;;5033573;28;20210;-87
2022/10/26 11:58:44;;;;;;;3.13;1.90;;;;;;;;;;5033546;28;20230;-87
2022/10/26 12:01:14;;;;;;;5.28;2.28;;;;;;;;;;5033202;28;20202;-87
2022/10/26 12:03:44;;;;;;;6.82;2.33;;;;;;;;;;5032702;28;20722;-88
2022/10/26 12:06:13;;;;;;;3.58;2.15;;;;;;;;;;5034374;28;20214;-88
2022/10/26 12:08:42;;;;;;;3.63;2.30;;;;;;;;;;5032317;28;20242;-86
2022/10/26 12:11:12;;;;;;;3.45;2.30;;;;;;;;;;5042971;28;20225;-87
2022/10/26 12:13:41;;;;;;;3.25;2.10;;;;;;;;;;5049419;28;20717;-87
2022/10/26 12:16:14;;;;;;;3.20;2.40;;;;;;;;;;5048492;28;20201;-86
2022/10/26 12:18:44;;;;;;;6.63;2.33;;;;;;;;;;5038777;28;20231;-86
2022/10/26 12:21:14;;;;;;;4.50;2.15;;;;;;;;;;5018894;28;20199;-87
2022/10/26 12:23:54;;;;;;;2.88;2.05;;;;;;;;;;5041140;28;20233;-86
2022/10/26 12:26:36;;;;;;;7.03;2.92;;;;;;;;;;5052504;28;20657;-87
2022/10/26 12:29:21;;;;;;;8.52;2.28;;;;;;;;;;5036133;28;20229;-88
2022/10/26 12:31:48;;;;;;;4.70;2.13;;;;;;;;;;5028146;28;20241;-86
2022/10/26 12:34:16;;;;;;;6.28;2.40;;;;;;;;;;5032708;28;20733;-86
2022/10/26 12:37:10;;;;;;;4.05;2.33;;;;;;;;;;5032260;28;20203;-87
2022/10/26 12:39:38;;;;;;;3.40;2.33;;;;;;;;;;5032471;28;20203;-87
2022/10/26 12:42:12;;;;;;;4.75;1.92;;;;;;;;;;5036585;28;20241;-87
2022/10/26 12:44:40;;;;;;;2.90;1.90;;;;;;;;;;5036157;28;20297;-88
2022/10/26 12:47:07;;;;;;;3.70;1.98;;;;;;;;;;5031715;28;20652;-87
2022/10/26 12:49:49;;;;;;;2.90;1.95;;;;;;;;;;5040648;28;20198;-87
2022/10/26 12:52:27;;;;;;;4.97;2.15;;;;;;;;;;5031720;28;20857;-86
2022/10/26 12:55:13;;;;;;;4.20;2.10;;;;;;;;;;5032705;28;20187;-87
2022/10/26 12:57:47;;;;;;;3.95;2.30;;;;;;;;;;5011999;28;20242;-87
2022/10/26 13:00:15;;;;;;;5.78;2.20;;;;;;;;;;5013371;28;20659;-87
2022/10/26 13:02:52;;;;;;;6.55;2.10;;;;;;;;;;5032033;28;20242;-87
2022/10/26 13:05:34;;;;;;;6.05;2.38;;;;;;;;;;5034922;28;20304;-89
2022/10/26 13:08:03;;;;;;;3.55;2.10;;;;;;;;;;5016599;28;20786;-88
2022/10/26 13:10:31;;;;;;;4.95;2.00;;;;;;;;;;5012305;28;20187;-87
2022/10/26 13:12:59;;;;;;;5.28;1.90;;;;;;;;;;5011950;28;20235;-87
2022/10/26 13:15:27;;;;;;;7.00;1.90;;;;;;;;;;5013561;28;20207;-86
2022/10/26 13:17:57;;;;;;;10.25;2.10;;;;;;;;;;5043993;28;20222;-86
2022/10/26 13:20:24;;;;;;;7.78;3.47;;;;;;;;;;5012256;28;20215;-88
2022/10/26 13:22:52;;;;;;;3.22;1.80;;;;;;;;;;5018183;28;20245;-88
2022/10/26 13:25:22;;;;;;;5.50;2.35;;;;;;;;;;5033186;28;20198;-87
2022/10/26 13:27:58;;;;;;;5.45;2.90;;;;;;;;;;5030685;28;20450;-88
2022/10/26 13:30:46;;;;;;;7.00;1.90;;;;;;;;;;5031388;28;20191;-86
2022/10/26 13:33:32;;;;;;;3.50;2.20;;;;;;;;;;5031137;28;20280;-87
2022/10/26 13:35:59;;;;;;;4.05;2.50;;;;;;;;;;5030531;28;20206;-86
2022/10/26 13:38:29;;;;;;;5.38;2.63;;;;;;;;;;5030596;28;20234;-86
2022/10/26 13:41:04;;;;;;;2.42;1.83;;;;;;;;;;5030538;28;20195;-86
2022/10/26 13:43:32;;;;;;;3.75;2.00;;;;;;;;;;5030768;28;20237;-86
2022/10/26 13:46:01;;;;;;;4.53;2.78;;;;;;;;;;5030915;28;20206;-87
2022/10/26 13:48:32;;;;;;;3.45;2.20;;;;;;;;;;5030698;28;20783;-87
2022/10/26 13:51:02;;;;;;;5.55;3.05;;;;;;;;;;5044005;28;20202;-87
2022/10/26 13:53:32;;;;;;;3.15;2.20;;;;;;;;;;5047904;28;20237;-86
2022/10/26 13:56:02;;;;;;;2.55;1.98;;;;;;;;;;5031248;28;20191;-85
2022/10/26 13:58:34;;;;;;;5.40;2.17;;;;;;;;;;5030459;28;20235;-85
2022/10/26 14:01:02;;;;;;;4.05;2.40;;;;;;;;;;5038481;28;20195;-88
2022/10/26 14:03:30;;;;;;;4.60;1.95;;;;;;;;;;5031711;28;20242;-88
2022/10/26 14:05:57;;;;;;;3.42;1.95;;;;;;;;;;5031630;28;20198;-88
2022/10/26 14:08:24;;;;;;;6.18;2.10;;;;;;;;;;5031546;28;20238;-89
2022/10/26 14:10:54;;;;;;;3.83;1.98;;;;;;;;;;5035174;28;20202;-88
2022/10/26 14:13:24;;;;;;;7.32;3.08;;;;;;;;;;5025528;28;20245;-89
2022/10/26 14:15:52;;;;;;;4.53;2.25;;;;;;;;;;5031245;28;20187;-88
2022/10/26 14:18:21;;;;;;;4.00;2.10;;;;;;;;;;5030247;28;20231;-89
2022/10/26 14:20:50;;;;;;;7.45;2.53;;;;;;;;;;5030789;28;20675;-88
2022/10/26 14:23:27;;;;;;;4.05;2.00;;;;;;;;;;5034385;28;20242;-89
2022/10/26 14:25:55;;;;;;;3.50;2.30;;;;;;;;;;5034239;28;20221;-88
2022/10/26 14:28:24;;;;;;;2.50;1.90;;;;;;;;;;5030621;28;20231;-87
2022/10/26 14:30:52;;;;;;;4.35;2.58;;;;;;;;;;5030454;28;20196;-90
2022/10/26 14:33:19;;;;;;;3.47;2.17;;;;;;;;;;5020447;28;20235;-89
2022/10/26 14:35:47;;;;;;;3.92;2.45;;;;;;;;;;5031025;28;20233;-90
2022/10/26 14:38:17;;;;;;;2.58;2.15;;;;;;;;;;5030334;28;20227;-89
2022/10/26 14:40:44;;;;;;;4.20;1.85;;;;;;;;;;5030951;28;20679;-91
2022/10/26 14:43:14;;;;;;;4.53;2.45;;;;;;;;;;5030291;28;20226;-92
2022/10/26 14:45:47;;;;;;;3.47;1.63;;;;;;;;;;5031206;28;20187;-91
2022/10/26 14:48:21;;;;;;;4.65;2.22;;;;;;;;;;5033001;28;20599;-90
2022/10/26 14:50:58;;;;;;;2.83;1.90;;;;;;;;;;5050804;28;20297;-89
2022/10/26 14:53:30;;;;;;;4.43;2.22;;;;;;;;;;5038045;28;20234;-87